To NAV CANADA Home Page Login to a new session Search on AWWS site Disclaimer Vers la page française équivalente Tips FAQ What's new on the site To the Forecasts and Observations / NOTAM section To "File a Flight Plan" website Publications and other links Update of the User's profile FIC Telephone Numbers My Weather Data Folder Route Weather Data Regional Weather Data Local Weather Data To the Forecasts and Observations / NOTAM section
Request Generated 11/13/2018 at 18:59:48 UTC . Weather information available at that time is displayed.

METAR/TAF

SAULT STE. MARIE/ON    

METAR CYAM 131800Z 36011G17KT 8SM -SHSN DRSN BKN028 OVC051 M08/M13 A3023 RMK CU5SC3 /S04/ SLP252=
SPECI CYAM 131733Z 35012KT 5SM -SHSN DRSN BKN031 OVC055 M08/M13 A3023 RMK CU5SC3 SLP252=
METAR CYAM 131700Z 35011G18KT 2 1/2SM -SHSNGS DRSN FEW012 BKN028TCU OVC058 M07/M12 A3023 RMK SN1CF1TCU3SC3 SLP251=
METAR CYAM 131600Z CCA 36011G19KT 2 1/2SM -SHSNGS DRSN SCT008 BKN021TCU OVC040 M07/M10 A3021 RMK SN1CF2TCU3SC2 /S03/ SLP243=
METAR CYAM 131600Z 36011G19KT 2 1/2SM -SHSNGS DRSN SCT008 BKN021TCU OVC040 M07/M10 A3021 RMK SN1CF2TCU3SC2 SLP243=

TAF AMD CYAM 131808Z 1318/1402 36015G25KT 6SM -SHSN OVC025 TEMPO
1318/1320 1SM -SHSNGS VV010 PROB40 1318/1320 3/8SM SHSNGS VV006
FM132000 31015G25KT 3/4SM -SHSN VV008 PROB40 1320/1324 3/8SM
SHSNGS VV006
FM140000 33015G25KT P6SM -SHSN BKN025 TEMPO 1400/1402 1SM -SHSNGS
VV010 PROB40 1400/1402 3/8SM SHSNGS VV005
RMK NXT FCST BY 132000Z=
Your time UTC time
Weather data provided by Environment Canada and NAV CANADA